createdAt,value
2023-03-29T00:00:45.925Z,54.87
2023-03-29T00:01:51.820Z,54.82
2023-03-29T00:02:56.369Z,54.88
2023-03-29T00:04:02.404Z,55.12
2023-03-29T00:05:06.579Z,55.14
2023-03-29T00:06:10.256Z,55.08
2023-03-29T00:07:14.100Z,54.94
2023-03-29T00:08:17.363Z,55.12
2023-03-29T00:09:19.889Z,55.12
2023-03-29T00:10:24.197Z,55.45
2023-03-29T00:11:26.293Z,55.59
2023-03-29T00:12:29.391Z,55.76
2023-03-29T00:13:31.368Z,55.56
2023-03-29T00:14:34.228Z,55.85
2023-03-29T00:15:36.230Z,55.70
2023-03-29T00:16:39.747Z,55.77
2023-03-29T00:17:42.991Z,55.80
2023-03-29T00:18:46.248Z,55.19
2023-03-29T00:19:48.527Z,56.22
2023-03-29T00:20:55.955Z,56.04
2023-03-29T00:21:57.766Z,56.51
2023-03-29T00:23:00.635Z,56.09
2023-03-29T00:24:02.696Z,56.21
2023-03-29T00:25:07.258Z,56.38
2023-03-29T00:26:09.317Z,57.06
2023-03-29T00:27:12.204Z,56.55
2023-03-29T00:28:14.802Z,57.25
2023-03-29T00:29:17.730Z,57.66
2023-03-29T00:30:19.568Z,57.66
2023-03-29T00:31:22.373Z,57.49
2023-03-29T00:32:25.961Z,58.61
2023-03-29T00:33:30.384Z,58.64
2023-03-29T00:34:32.265Z,58.94
2023-03-29T00:35:35.174Z,59.29
2023-03-29T00:36:37.035Z,59.12
2023-03-29T00:37:41.253Z,58.57
2023-03-29T00:38:44.179Z,58.25
2023-03-29T00:39:48.271Z,59.06
2023-03-29T00:40:50.191Z,58.56
2023-03-29T00:41:53.674Z,59.14
2023-03-29T00:42:58.096Z,60.17
2023-03-29T00:44:02.470Z,60.30
2023-03-29T00:45:10.281Z,59.91
2023-03-29T00:46:13.446Z,59.04
2023-03-29T00:47:16.236Z,58.86
2023-03-29T00:48:22.880Z,59.12
2023-03-29T00:49:26.404Z,59.34
2023-03-29T00:50:31.828Z,59.11
2023-03-29T00:51:37.312Z,60.76
2023-03-29T00:52:46.278Z,59.74
2023-03-29T00:53:53.100Z,58.80
2023-03-29T00:54:59.488Z,59.18
2023-03-29T00:56:06.382Z,59.19
2023-03-29T00:57:09.556Z,57.92
2023-03-29T00:58:16.632Z,59.48
2023-03-29T00:59:22.895Z,60.53
2023-03-29T01:00:32.228Z,58.62
2023-03-29T01:01:42.007Z,57.93
2023-03-29T01:02:50.925Z,57.77
2023-03-29T01:03:59.184Z,58.33
2023-03-29T01:05:08.435Z,60.20
2023-03-29T01:06:12.158Z,59.54
2023-03-29T01:07:21.284Z,59.51
2023-03-29T01:08:27.531Z,59.78
2023-03-29T01:09:34.390Z,59.38
2023-03-29T01:10:40.499Z,58.26
2023-03-29T01:11:48.648Z,59.13
2023-03-29T01:12:56.451Z,58.73
2023-03-29T01:14:03.731Z,58.50
2023-03-29T01:15:10.157Z,57.75
2023-03-29T01:16:15.548Z,59.45
2023-03-29T01:17:21.745Z,59.01
2023-03-29T01:18:24.621Z,58.68
2023-03-29T01:19:33.901Z,58.23
2023-03-29T01:20:56.436Z,58.90
2023-03-29T01:22:05.508Z,57.92
2023-03-29T01:23:31.642Z,57.70
2023-03-29T01:24:46.266Z,57.43
2023-03-29T01:25:55.639Z,57.16
2023-03-29T01:27:05.253Z,57.45
2023-03-29T01:28:11.625Z,58.62
2023-03-29T01:29:18.469Z,58.02
2023-03-29T01:30:26.922Z,58.74
2023-03-29T01:31:34.816Z,57.44
2023-03-29T01:32:44.655Z,58.37
2023-03-29T01:33:53.129Z,58.55
2023-03-29T01:35:00.571Z,57.81
2023-03-29T01:36:09.641Z,57.86
2023-03-29T01:37:19.197Z,57.62
2023-03-29T01:38:25.473Z,57.76
2023-03-29T01:39:28.550Z,58.32
2023-03-29T01:40:33.482Z,58.25
2023-03-29T01:41:47.812Z,58.23
2023-03-29T01:42:57.980Z,58.52
2023-03-29T01:44:06.678Z,58.13
2023-03-29T01:45:22.692Z,58.48
2023-03-29T01:46:31.823Z,57.99
2023-03-29T01:47:44.309Z,58.17
2023-03-29T01:48:51.470Z,58.07
2023-03-29T01:50:00.610Z,58.44
2023-03-29T01:51:08.577Z,58.50
2023-03-29T01:52:17.083Z,58.68
2023-03-29T01:53:28.233Z,58.45
2023-03-29T01:54:35.350Z,59.59
2023-03-29T01:55:42.481Z,59.46
2023-03-29T01:56:48.381Z,61.84
2023-03-29T01:57:54.116Z,59.36
2023-03-29T01:59:00.942Z,59.88
2023-03-29T02:00:10.786Z,59.59
2023-03-29T02:01:17.665Z,59.36
2023-03-29T02:02:22.589Z,59.27
2023-03-29T02:03:28.107Z,58.99
2023-03-29T02:04:35.148Z,59.86
2023-03-29T02:05:39.308Z,60.10
2023-03-29T02:06:43.391Z,60.79
2023-03-29T02:07:47.506Z,60.11
2023-03-29T02:08:52.326Z,59.58
2023-03-29T02:09:55.304Z,59.50
2023-03-29T02:10:59.219Z,59.29
2023-03-29T02:12:02.318Z,59.38
2023-03-29T02:13:08.823Z,59.66
2023-03-29T02:14:10.751Z,59.54
2023-03-29T02:15:18.660Z,60.32
2023-03-29T02:16:20.896Z,59.92
2023-03-29T02:17:25.976Z,59.91
2023-03-29T02:18:28.484Z,60.26
2023-03-29T02:19:31.393Z,60.84
2023-03-29T02:20:39.311Z,61.49
2023-03-29T02:21:49.161Z,61.28
2023-03-29T02:22:57.937Z,61.32
2023-03-29T02:24:04.376Z,61.10
2023-03-29T02:25:09.428Z,60.19
2023-03-29T02:26:14.631Z,60.16
2023-03-29T02:27:16.684Z,63.20
2023-03-29T02:28:19.615Z,61.46
2023-03-29T02:29:21.503Z,62.23
2023-03-29T02:30:31.386Z,60.66
2023-03-29T02:31:39.087Z,60.99
2023-03-29T02:32:50.657Z,62.79
2023-03-29T02:33:57.360Z,60.66
2023-03-29T02:35:06.656Z,61.42
2023-03-29T02:36:13.099Z,60.21
2023-03-29T02:37:21.726Z,61.13
2023-03-29T02:38:25.609Z,60.40
2023-03-29T02:39:31.664Z,60.29
2023-03-29T02:40:34.864Z,60.43
2023-03-29T02:41:39.641Z,60.81
2023-03-29T02:42:45.904Z,60.60
2023-03-29T02:43:49.532Z,60.33
2023-03-29T02:44:56.330Z,60.52
2023-03-29T02:46:01.197Z,61.08
2023-03-29T02:47:08.173Z,61.94
2023-03-29T02:48:16.243Z,60.40
2023-03-29T02:49:18.784Z,64.08
2023-03-29T02:50:21.988Z,62.33
2023-03-29T02:51:27.633Z,62.14
2023-03-29T02:52:36.494Z,63.31
2023-03-29T02:53:43.562Z,61.40
2023-03-29T02:54:50.324Z,61.16
2023-03-29T02:55:52.830Z,61.52
2023-03-29T02:56:58.312Z,61.36
2023-03-29T02:58:03.353Z,61.32
2023-03-29T02:59:06.275Z,60.35
2023-03-29T03:00:10.167Z,60.59
2023-03-29T03:01:15.036Z,60.95
2023-03-29T03:02:17.598Z,60.72
2023-03-29T03:03:20.807Z,61.46
2023-03-29T03:04:25.510Z,61.00
2023-03-29T03:05:28.393Z,60.55
2023-03-29T03:06:30.272Z,60.69
2023-03-29T03:07:33.713Z,60.29
2023-03-29T03:08:35.669Z,60.21
2023-03-29T03:09:38.540Z,60.92
2023-03-29T03:10:41.368Z,61.97
2023-03-29T03:11:43.394Z,65.15
2023-03-29T03:12:46.600Z,66.77
2023-03-29T03:13:48.676Z,66.37
2023-03-29T03:14:51.567Z,63.35
2023-03-29T03:15:54.179Z,62.09
2023-03-29T03:16:58.489Z,62.69
2023-03-29T03:18:00.791Z,62.00
2023-03-29T03:19:04.486Z,62.11
2023-03-29T03:20:12.595Z,62.87
2023-03-29T03:21:16.660Z,61.91
2023-03-29T03:22:19.272Z,65.19
2023-03-29T03:23:22.909Z,62.72
2023-03-29T03:24:25.265Z,61.23
2023-03-29T03:25:29.058Z,61.61
2023-03-29T03:26:31.308Z,61.96
2023-03-29T03:27:34.928Z,61.43
2023-03-29T03:28:36.776Z,61.85
2023-03-29T03:29:42.407Z,60.90
2023-03-29T03:30:47.327Z,61.90
2023-03-29T03:31:54.062Z,61.48
2023-03-29T03:33:30.476Z,60.69
2023-03-29T03:35:08.828Z,61.05
2023-03-29T03:36:11.408Z,61.01
2023-03-29T03:37:15.448Z,60.54
2023-03-29T03:38:18.430Z,61.31
2023-03-29T03:39:27.780Z,61.89
2023-03-29T03:40:30.949Z,61.79
2023-03-29T03:41:33.079Z,61.95
2023-03-29T03:42:36.161Z,61.62
2023-03-29T03:43:38.206Z,61.98
2023-03-29T03:44:42.542Z,61.52
2023-03-29T03:46:18.116Z,61.85
2023-03-29T03:47:20.881Z,61.79
2023-03-29T03:48:24.992Z,61.60
2023-03-29T03:49:58.419Z,61.30
2023-03-29T03:51:01.400Z,61.80
2023-03-29T03:52:10.462Z,62.44
2023-03-29T03:53:12.329Z,62.35
2023-03-29T03:54:41.253Z,62.34
2023-03-29T03:56:16.794Z,62.28
2023-03-29T03:57:38.886Z,63.47
2023-03-29T03:58:47.547Z,61.55
2023-03-29T03:59:52.276Z,61.75
2023-03-29T04:01:03.579Z,61.55
2023-03-29T04:02:16.482Z,61.95
2023-03-29T04:03:19.694Z,61.74
2023-03-29T04:04:24.670Z,62.08
2023-03-29T04:05:41.851Z,62.34
2023-03-29T04:06:45.078Z,61.51
2023-03-29T04:08:15.541Z,61.60
2023-03-29T04:09:36.284Z,61.52
2023-03-29T04:11:09.188Z,62.27
2023-03-29T04:12:13.195Z,61.71
2023-03-29T04:13:17.732Z,61.84
2023-03-29T04:14:40.540Z,61.68
2023-03-29T04:15:49.731Z,62.18
2023-03-29T04:16:52.759Z,62.18
2023-03-29T04:18:25.192Z,62.77
2023-03-29T04:19:31.389Z,62.42
2023-03-29T04:20:34.629Z,62.05
2023-03-29T04:21:38.571Z,62.58
2023-03-29T04:22:42.059Z,62.23
2023-03-29T04:23:46.509Z,63.54
2023-03-29T04:24:49.452Z,64.13
2023-03-29T04:26:09.971Z,62.70
2023-03-29T04:27:27.927Z,63.72
2023-03-29T04:28:31.593Z,64.64
2023-03-29T04:29:44.756Z,65.83
2023-03-29T04:30:57.215Z,65.65
2023-03-29T04:32:21.232Z,66.61
2023-03-29T04:33:37.535Z,66.36
2023-03-29T04:34:40.588Z,66.88
2023-03-29T04:35:42.591Z,66.53
2023-03-29T04:36:51.217Z,67.07
2023-03-29T04:37:57.982Z,66.77
2023-03-29T04:39:01.867Z,67.12
2023-03-29T04:40:09.005Z,66.17
2023-03-29T04:41:24.932Z,67.14
2023-03-29T04:42:34.245Z,67.50
2023-03-29T04:43:39.713Z,67.05
2023-03-29T04:45:00.955Z,67.40
2023-03-29T04:46:25.474Z,67.12
2023-03-29T04:47:49.004Z,67.43
2023-03-29T04:48:54.109Z,67.30
2023-03-29T04:50:08.031Z,67.22
2023-03-29T04:51:14.512Z,68.17
2023-03-29T04:52:19.316Z,68.35
2023-03-29T04:53:22.931Z,67.34
2023-03-29T04:54:26.420Z,68.00
2023-03-29T04:55:47.904Z,67.86
2023-03-29T04:56:57.148Z,67.80
2023-03-29T04:58:38.297Z,68.24
2023-03-29T04:59:40.169Z,67.79
2023-03-29T05:00:58.919Z,68.12
2023-03-29T05:02:05.717Z,68.23
2023-03-29T05:03:11.440Z,68.32
2023-03-29T05:04:19.280Z,67.71
2023-03-29T05:05:36.989Z,67.93
2023-03-29T05:06:40.047Z,67.94
2023-03-29T05:07:45.210Z,68.43
2023-03-29T05:08:50.006Z,68.28
2023-03-29T05:09:56.866Z,67.99
2023-03-29T05:10:59.985Z,68.21
2023-03-29T05:12:03.676Z,67.76
2023-03-29T05:13:14.623Z,68.14
2023-03-29T05:14:16.486Z,68.09
2023-03-29T05:15:20.606Z,68.23
2023-03-29T05:16:26.342Z,67.81
2023-03-29T05:17:31.796Z,68.42
2023-03-29T05:18:41.820Z,67.98
2023-03-29T05:19:45.107Z,68.12
2023-03-29T05:20:47.979Z,68.03
2023-03-29T05:21:53.149Z,67.90
2023-03-29T05:23:00.474Z,68.24
2023-03-29T05:24:22.398Z,68.47
2023-03-29T05:25:33.553Z,68.30
2023-03-29T05:26:35.585Z,68.28
2023-03-29T05:27:39.935Z,67.99
2023-03-29T05:28:44.391Z,68.03
2023-03-29T05:29:48.968Z,68.30
2023-03-29T05:31:01.393Z,68.09
2023-03-29T05:32:05.209Z,68.16
2023-03-29T05:33:10.651Z,68.27
2023-03-29T05:34:13.800Z,68.13
2023-03-29T05:35:24.164Z,68.54
2023-03-29T05:36:26.363Z,68.30
2023-03-29T05:37:29.637Z,68.05
2023-03-29T05:38:38.173Z,68.80
2023-03-29T05:39:40.175Z,68.84
2023-03-29T05:40:43.196Z,68.31
2023-03-29T05:42:22.548Z,67.89
2023-03-29T05:43:30.917Z,68.00
2023-03-29T05:44:33.232Z,68.19
2023-03-29T05:45:46.038Z,68.26
2023-03-29T05:46:48.483Z,68.39
2023-03-29T05:47:53.119Z,68.54
2023-03-29T05:48:55.181Z,68.25
2023-03-29T05:50:03.841Z,68.19
2023-03-29T05:51:06.317Z,68.23
2023-03-29T05:52:09.326Z,68.32
2023-03-29T05:53:12.852Z,68.09
2023-03-29T05:54:17.169Z,68.05
2023-03-29T05:55:19.126Z,68.40
2023-03-29T05:56:22.440Z,68.46
2023-03-29T05:57:24.364Z,68.64
2023-03-29T05:58:28.458Z,68.52
2023-03-29T05:59:30.475Z,68.76
2023-03-29T06:00:36.881Z,68.25
2023-03-29T06:01:54.514Z,68.78
2023-03-29T06:03:06.450Z,68.97
2023-03-29T06:04:13.437Z,68.53
2023-03-29T06:05:25.027Z,68.50
2023-03-29T06:06:32.253Z,68.74
2023-03-29T06:07:38.209Z,68.56
2023-03-29T06:09:04.118Z,68.81
2023-03-29T06:10:24.907Z,69.01
2023-03-29T06:11:35.081Z,69.29
2023-03-29T06:13:00.141Z,68.57
2023-03-29T06:14:03.720Z,69.09
2023-03-29T06:15:08.513Z,68.90
2023-03-29T06:16:16.540Z,69.29
2023-03-29T06:17:19.821Z,69.19
2023-03-29T06:18:24.637Z,69.13
2023-03-29T06:19:26.473Z,66.53
2023-03-29T06:20:30.692Z,68.76
2023-03-29T06:21:39.313Z,68.91
2023-03-29T06:22:42.518Z,69.19
2023-03-29T06:23:47.705Z,69.27
2023-03-29T06:24:52.119Z,69.36
2023-03-29T06:26:02.479Z,69.14
2023-03-29T06:27:04.736Z,69.36
2023-03-29T06:28:07.798Z,69.28
2023-03-29T06:29:11.380Z,69.37
2023-03-29T06:30:17.178Z,69.42
2023-03-29T06:31:24.585Z,69.40
2023-03-29T06:32:28.273Z,69.32
2023-03-29T06:33:43.138Z,69.07
2023-03-29T06:35:08.187Z,69.36
2023-03-29T06:36:16.881Z,69.13
2023-03-29T06:37:19.404Z,68.97
2023-03-29T06:38:26.337Z,69.08
2023-03-29T06:39:53.837Z,69.22
2023-03-29T06:41:04.905Z,69.14
2023-03-29T06:42:25.466Z,68.81
2023-03-29T06:43:57.798Z,68.29
2023-03-29T06:45:07.695Z,68.74
2023-03-29T06:46:13.460Z,68.62
2023-03-29T06:47:45.475Z,68.71
2023-03-29T06:48:48.314Z,68.85
2023-03-29T06:49:51.308Z,68.03
2023-03-29T06:51:12.848Z,68.38
2023-03-29T06:52:15.832Z,68.77
2023-03-29T06:53:22.073Z,69.03
2023-03-29T06:54:33.634Z,69.95
2023-03-29T06:55:37.844Z,69.59
2023-03-29T06:57:08.003Z,68.97
2023-03-29T06:58:11.077Z,68.86
2023-03-29T06:59:14.708Z,68.93
2023-03-29T07:00:35.770Z,68.70
2023-03-29T07:01:52.592Z,69.15
2023-03-29T07:03:08.034Z,68.91
2023-03-29T07:04:11.121Z,68.60
2023-03-29T07:05:32.424Z,68.71
2023-03-29T07:06:36.686Z,68.69
2023-03-29T07:07:53.685Z,68.92
2023-03-29T07:09:18.357Z,68.70
2023-03-29T07:10:44.077Z,68.33
2023-03-29T07:12:05.435Z,69.32
2023-03-29T07:13:11.047Z,68.90
2023-03-29T07:14:13.966Z,68.80
2023-03-29T07:15:16.239Z,69.12
2023-03-29T07:16:39.152Z,68.48
2023-03-29T07:17:55.134Z,68.62
2023-03-29T07:18:58.100Z,68.71
2023-03-29T07:20:33.741Z,68.20
2023-03-29T07:21:43.626Z,67.99
2023-03-29T07:22:48.215Z,67.19
2023-03-29T07:23:52.214Z,67.60
2023-03-29T07:24:54.328Z,67.46
2023-03-29T07:25:57.312Z,67.39
2023-03-29T07:27:04.544Z,66.71
2023-03-29T07:28:11.215Z,67.08
2023-03-29T07:29:14.637Z,67.04
2023-03-29T07:30:19.233Z,66.83
2023-03-29T07:31:22.236Z,67.14
2023-03-29T07:32:31.241Z,67.19
2023-03-29T07:33:55.844Z,67.09
2023-03-29T07:34:59.125Z,66.50
2023-03-29T07:36:09.238Z,66.76
2023-03-29T07:37:11.335Z,66.37
2023-03-29T07:38:17.145Z,66.92
2023-03-29T07:39:26.158Z,67.25
2023-03-29T07:40:51.752Z,66.82
2023-03-29T07:42:12.210Z,66.72
2023-03-29T07:43:18.290Z,66.70
2023-03-29T07:44:21.616Z,66.76
2023-03-29T07:45:28.166Z,66.94
2023-03-29T07:46:44.940Z,66.76
2023-03-29T07:47:47.504Z,67.23
2023-03-29T07:48:50.475Z,66.57
2023-03-29T07:49:52.377Z,67.00
2023-03-29T07:50:55.885Z,66.95
2023-03-29T07:52:03.788Z,67.58
2023-03-29T07:53:07.306Z,67.63
2023-03-29T07:54:10.961Z,67.21
2023-03-29T07:55:16.423Z,67.23
2023-03-29T07:56:36.408Z,67.43
2023-03-29T07:57:53.813Z,67.01
2023-03-29T07:58:58.313Z,67.51
2023-03-29T08:00:00.500Z,67.16
2023-03-29T08:01:19.699Z,67.31
2023-03-29T08:02:43.960Z,68.01
2023-03-29T08:03:46.911Z,67.72
2023-03-29T08:04:49.923Z,67.58
2023-03-29T08:05:51.961Z,67.40
2023-03-29T08:06:55.260Z,67.83
2023-03-29T08:08:02.713Z,67.90
2023-03-29T08:09:13.652Z,67.41
2023-03-29T08:10:21.471Z,67.49
2023-03-29T08:11:38.549Z,67.72
2023-03-29T08:12:50.198Z,67.90
2023-03-29T08:13:56.261Z,67.73
2023-03-29T08:15:28.793Z,67.57
2023-03-29T08:16:31.780Z,67.76
2023-03-29T08:17:40.833Z,67.15
2023-03-29T08:18:43.799Z,67.67
2023-03-29T08:19:50.992Z,68.03
2023-03-29T08:20:58.136Z,68.03
2023-03-29T08:22:00.986Z,67.62
2023-03-29T08:23:11.383Z,68.38
2023-03-29T08:24:33.045Z,73.32
2023-03-29T08:25:41.401Z,69.50
2023-03-29T08:26:44.965Z,67.12
2023-03-29T08:27:50.001Z,66.35
2023-03-29T08:29:02.812Z,65.98
2023-03-29T08:30:08.225Z,65.18
2023-03-29T08:31:13.774Z,65.86
2023-03-29T08:32:20.393Z,65.49
2023-03-29T08:33:22.442Z,66.18
2023-03-29T08:34:35.556Z,66.31
2023-03-29T08:35:58.707Z,66.80
2023-03-29T08:37:05.071Z,66.72
2023-03-29T08:38:14.637Z,66.47
2023-03-29T08:39:18.495Z,66.86
2023-03-29T08:40:31.712Z,67.07
2023-03-29T08:41:56.478Z,68.02
2023-03-29T08:43:29.957Z,67.55
2023-03-29T08:45:07.852Z,67.61
2023-03-29T08:46:23.747Z,67.97
2023-03-29T08:47:35.229Z,68.62
2023-03-29T08:48:42.383Z,67.52
2023-03-29T08:49:49.673Z,66.72
2023-03-29T08:50:57.285Z,66.88
2023-03-29T08:52:03.680Z,66.39
2023-03-29T08:53:12.907Z,66.18
2023-03-29T08:54:56.698Z,66.50
2023-03-29T08:56:31.536Z,67.15
2023-03-29T08:57:47.431Z,66.07
2023-03-29T08:58:58.949Z,67.11
2023-03-29T09:00:10.555Z,66.16
2023-03-29T09:01:16.256Z,66.58
2023-03-29T09:02:38.129Z,66.98
2023-03-29T09:03:48.388Z,65.94
2023-03-29T09:05:09.532Z,66.14
2023-03-29T09:06:23.063Z,66.16
2023-03-29T09:07:30.787Z,66.41
2023-03-29T09:08:37.308Z,66.11
2023-03-29T09:09:39.301Z,66.41
2023-03-29T09:11:12.540Z,65.81
2023-03-29T09:12:28.193Z,66.10
2023-03-29T09:13:40.644Z,65.94
2023-03-29T09:14:56.762Z,66.08
2023-03-29T09:16:08.436Z,65.98
2023-03-29T09:17:28.573Z,66.41
2023-03-29T09:18:40.338Z,66.08
2023-03-29T09:19:49.133Z,65.95
2023-03-29T09:20:58.087Z,65.68
2023-03-29T09:22:10.412Z,65.84
2023-03-29T09:23:29.455Z,65.67
2023-03-29T09:24:59.924Z,66.12
2023-03-29T09:26:09.730Z,66.42
2023-03-29T09:27:35.413Z,66.17
2023-03-29T09:29:10.299Z,66.41
2023-03-29T09:30:21.379Z,66.95
2023-03-29T09:31:33.607Z,66.91
2023-03-29T09:32:45.246Z,66.20
2023-03-29T09:33:54.338Z,67.18
2023-03-29T09:35:10.530Z,67.37
2023-03-29T09:36:18.326Z,66.87
2023-03-29T09:37:30.183Z,67.00
2023-03-29T09:38:43.370Z,67.12
2023-03-29T09:39:45.908Z,65.88
2023-03-29T09:40:56.652Z,66.19
2023-03-29T09:42:04.804Z,65.50
2023-03-29T09:43:11.303Z,66.10
2023-03-29T09:44:30.376Z,66.93
2023-03-29T09:45:40.246Z,66.63
2023-03-29T09:46:47.458Z,65.33
2023-03-29T09:47:56.972Z,65.56
2023-03-29T09:49:03.057Z,65.70
2023-03-29T09:50:19.829Z,65.62
2023-03-29T09:51:35.651Z,64.93
2023-03-29T09:52:38.702Z,64.64
2023-03-29T09:53:52.247Z,65.08
2023-03-29T09:55:16.078Z,64.71
2023-03-29T09:56:32.750Z,64.80
2023-03-29T09:57:46.629Z,65.73
2023-03-29T09:58:51.284Z,64.93
2023-03-29T09:59:55.981Z,65.41
2023-03-29T10:01:00.688Z,64.78
2023-03-29T10:02:08.609Z,65.12
2023-03-29T10:03:19.788Z,65.09
2023-03-29T10:04:27.943Z,64.70
2023-03-29T10:05:37.847Z,65.01
2023-03-29T10:06:47.483Z,64.00
2023-03-29T10:07:53.759Z,63.83
2023-03-29T10:08:58.968Z,62.92
2023-03-29T10:10:10.477Z,63.71
2023-03-29T10:11:22.113Z,63.40
2023-03-29T10:12:24.044Z,63.61
2023-03-29T10:13:30.618Z,63.25
2023-03-29T10:14:35.421Z,63.18
2023-03-29T10:15:38.333Z,63.15
2023-03-29T10:16:45.270Z,63.67
2023-03-29T10:17:47.711Z,63.52
2023-03-29T10:18:54.596Z,64.10
2023-03-29T10:20:00.934Z,63.66
2023-03-29T10:21:07.362Z,64.39
2023-03-29T10:22:18.924Z,63.98
2023-03-29T10:23:21.708Z,63.25
2023-03-29T10:24:26.527Z,62.71
2023-03-29T10:25:31.525Z,63.40
2023-03-29T10:26:36.894Z,62.73
2023-03-29T10:27:43.515Z,63.52
2023-03-29T10:28:46.456Z,63.39
2023-03-29T10:29:48.487Z,64.53
2023-03-29T10:30:56.327Z,65.08
2023-03-29T10:31:59.213Z,64.55
2023-03-29T10:33:01.648Z,64.79
2023-03-29T10:34:08.973Z,64.63
2023-03-29T10:35:24.929Z,63.51
2023-03-29T10:36:28.543Z,63.57
2023-03-29T10:37:31.586Z,62.24
2023-03-29T10:38:36.522Z,62.45
2023-03-29T10:39:40.701Z,62.00
2023-03-29T10:40:45.381Z,62.07
2023-03-29T10:41:53.184Z,61.65
2023-03-29T10:42:58.712Z,62.53
2023-03-29T10:44:02.431Z,62.04
2023-03-29T10:45:05.103Z,61.76
2023-03-29T10:46:10.948Z,61.48
2023-03-29T10:47:16.332Z,61.71
2023-03-29T10:48:19.772Z,62.83
2023-03-29T10:49:25.461Z,62.30
2023-03-29T10:50:33.405Z,62.61
2023-03-29T10:51:36.591Z,63.11
2023-03-29T10:52:40.267Z,61.84
2023-03-29T10:53:43.255Z,61.56
2023-03-29T10:54:47.356Z,62.62
2023-03-29T10:56:01.773Z,62.16
2023-03-29T10:57:09.308Z,62.68
2023-03-29T10:58:30.362Z,62.10
2023-03-29T10:59:40.782Z,60.94
2023-03-29T11:00:50.976Z,61.61
2023-03-29T11:02:26.003Z,60.92
2023-03-29T11:03:53.814Z,60.47
2023-03-29T11:05:10.526Z,61.09
2023-03-29T11:06:20.951Z,61.48
2023-03-29T11:07:29.913Z,61.02
2023-03-29T11:08:48.102Z,59.93
2023-03-29T11:10:00.933Z,60.93
2023-03-29T11:11:16.476Z,59.80
2023-03-29T11:12:26.858Z,59.87
2023-03-29T11:13:38.885Z,58.85
2023-03-29T11:14:52.346Z,58.01
2023-03-29T11:16:09.639Z,58.00
2023-03-29T11:17:28.361Z,58.42
2023-03-29T11:18:49.780Z,58.92
2023-03-29T11:20:04.514Z,57.29
2023-03-29T11:21:19.736Z,57.86
2023-03-29T11:22:31.226Z,57.15
2023-03-29T11:23:46.029Z,57.31
2023-03-29T11:25:08.066Z,56.83
2023-03-29T11:26:18.152Z,56.67
2023-03-29T11:27:29.819Z,57.19
2023-03-29T11:28:42.203Z,57.08
2023-03-29T11:29:54.478Z,57.15
2023-03-29T11:31:05.582Z,58.27
2023-03-29T11:32:15.883Z,57.79
2023-03-29T11:33:33.958Z,56.98
2023-03-29T11:34:52.478Z,57.12
2023-03-29T11:36:06.326Z,57.69
2023-03-29T11:37:20.368Z,57.17
2023-03-29T11:38:32.331Z,57.73
2023-03-29T11:39:45.967Z,56.83
2023-03-29T11:40:57.685Z,57.41
2023-03-29T11:42:09.276Z,57.64
2023-03-29T11:43:18.968Z,58.34
2023-03-29T11:44:25.403Z,58.35
2023-03-29T11:45:30.108Z,57.87
2023-03-29T11:46:37.845Z,57.53
2023-03-29T11:47:42.931Z,56.99
2023-03-29T11:48:51.492Z,56.39
2023-03-29T11:49:57.412Z,56.30
2023-03-29T11:51:07.080Z,57.22
2023-03-29T11:52:15.958Z,56.45
2023-03-29T11:53:25.537Z,58.28
2023-03-29T11:54:34.470Z,58.24
2023-03-29T11:55:39.344Z,58.12
2023-03-29T11:56:45.993Z,57.26
2023-03-29T11:57:53.778Z,57.52
2023-03-29T11:59:02.979Z,56.39
2023-03-29T12:00:12.407Z,57.22
2023-03-29T12:01:19.945Z,57.81
2023-03-29T12:02:30.803Z,57.22
2023-03-29T12:03:38.665Z,57.98
2023-03-29T12:04:47.779Z,57.62
2023-03-29T12:05:56.783Z,58.45
2023-03-29T12:07:10.380Z,58.40
2023-03-29T12:08:16.589Z,58.10
2023-03-29T12:09:28.983Z,57.68
2023-03-29T12:10:36.334Z,58.37
2023-03-29T12:11:43.758Z,59.02
2023-03-29T12:12:50.365Z,58.59
2023-03-29T12:13:59.002Z,58.53
2023-03-29T12:15:06.894Z,57.29
2023-03-29T12:16:16.610Z,56.32
2023-03-29T12:17:24.077Z,56.92
2023-03-29T12:18:31.308Z,56.24
2023-03-29T12:19:41.806Z,57.33
2023-03-29T12:20:50.849Z,56.66
2023-03-29T12:21:56.078Z,56.50
2023-03-29T12:23:01.690Z,56.76
2023-03-29T12:24:03.964Z,56.47
2023-03-29T12:25:11.901Z,56.46
2023-03-29T12:26:29.403Z,57.15
2023-03-29T12:27:38.372Z,55.31
2023-03-29T12:29:05.301Z,55.69
2023-03-29T12:30:34.447Z,54.44
2023-03-29T12:31:43.549Z,54.90
2023-03-29T12:33:00.597Z,55.08
2023-03-29T12:34:49.140Z,55.99
2023-03-29T12:36:30.592Z,55.82
2023-03-29T12:38:17.934Z,55.44
2023-03-29T12:40:11.808Z,57.10
2023-03-29T12:41:38.366Z,57.08
2023-03-29T12:43:07.438Z,57.73
2023-03-29T12:44:34.072Z,56.78
2023-03-29T12:45:54.586Z,56.90
2023-03-29T12:47:00.292Z,55.93
2023-03-29T12:48:02.859Z,56.89
2023-03-29T12:49:12.270Z,57.70
2023-03-29T12:50:28.572Z,57.40
2023-03-29T12:51:33.553Z,58.02
2023-03-29T12:52:37.701Z,57.10
2023-03-29T12:53:44.567Z,56.85
2023-03-29T12:54:53.438Z,56.93
2023-03-29T12:56:09.871Z,57.88
2023-03-29T12:57:22.496Z,57.42
2023-03-29T12:58:42.736Z,57.85
2023-03-29T12:59:46.875Z,58.61
2023-03-29T13:01:05.777Z,58.22
2023-03-29T13:02:28.230Z,57.02
2023-03-29T13:03:42.449Z,56.48
2023-03-29T13:04:52.386Z,58.02
2023-03-29T13:06:01.347Z,57.14
2023-03-29T13:07:07.140Z,56.85
2023-03-29T13:08:26.742Z,56.84
2023-03-29T13:09:32.327Z,57.55
2023-03-29T13:10:39.060Z,57.01
2023-03-29T13:11:41.373Z,57.58
2023-03-29T13:12:46.519Z,56.44
2023-03-29T13:13:50.953Z,56.65
2023-03-29T13:14:56.654Z,56.08
2023-03-29T13:16:11.995Z,57.01
2023-03-29T13:17:25.682Z,57.80
2023-03-29T13:18:50.371Z,56.92
2023-03-29T13:20:14.282Z,57.16
2023-03-29T13:21:24.468Z,56.61
2023-03-29T13:22:42.612Z,58.19
2023-03-29T13:23:54.412Z,57.87
2023-03-29T13:25:17.920Z,56.44
2023-03-29T13:26:37.128Z,55.76
2023-03-29T13:27:50.759Z,56.33
2023-03-29T13:29:15.440Z,54.38
2023-03-29T13:30:28.442Z,53.83
2023-03-29T13:31:37.221Z,54.32
2023-03-29T13:32:49.976Z,55.24
2023-03-29T13:34:02.172Z,53.14
2023-03-29T13:35:14.786Z,53.96
2023-03-29T13:36:33.109Z,53.19
2023-03-29T13:37:48.705Z,54.20
2023-03-29T13:38:55.332Z,52.97
2023-03-29T13:39:58.348Z,51.02
2023-03-29T13:41:04.699Z,52.04
2023-03-29T13:42:19.729Z,52.67
2023-03-29T13:43:30.754Z,50.89
2023-03-29T13:44:43.530Z,51.05
2023-03-29T13:45:47.599Z,51.00
2023-03-29T13:47:01.912Z,51.36
2023-03-29T13:48:07.014Z,51.88
2023-03-29T13:49:19.833Z,52.07
2023-03-29T13:50:36.225Z,51.77
2023-03-29T13:51:41.151Z,51.07
2023-03-29T13:52:54.511Z,50.83
2023-03-29T13:54:01.666Z,51.75
2023-03-29T13:55:08.642Z,50.58
2023-03-29T13:56:21.110Z,50.98
2023-03-29T13:57:32.745Z,50.68
2023-03-29T13:58:42.743Z,50.91
2023-03-29T13:59:58.191Z,50.19
2023-03-29T14:01:08.290Z,51.62
2023-03-29T14:02:22.124Z,50.87
2023-03-29T14:03:29.830Z,50.23
2023-03-29T14:04:37.789Z,49.61
2023-03-29T14:05:43.346Z,49.89
2023-03-29T14:06:51.710Z,50.56
2023-03-29T14:07:55.686Z,50.95
2023-03-29T14:09:00.757Z,49.91
2023-03-29T14:10:04.819Z,50.66
2023-03-29T14:11:13.645Z,49.76
2023-03-29T14:12:19.170Z,49.49
2023-03-29T14:13:24.533Z,50.46
2023-03-29T14:14:30.597Z,49.80
2023-03-29T14:15:44.352Z,49.97
2023-03-29T14:16:46.475Z,50.19
2023-03-29T14:17:49.891Z,50.26
2023-03-29T14:18:52.806Z,50.22
2023-03-29T14:19:58.845Z,49.91
2023-03-29T14:21:02.725Z,50.30
2023-03-29T14:22:10.795Z,50.34
2023-03-29T14:23:20.694Z,49.98
2023-03-29T14:24:27.023Z,50.10
2023-03-29T14:25:30.638Z,51.41
2023-03-29T14:26:34.587Z,59.91
2023-03-29T14:27:38.864Z,59.89
2023-03-29T14:28:45.995Z,53.05
2023-03-29T14:29:51.105Z,51.23
2023-03-29T14:30:55.389Z,51.11
2023-03-29T14:31:58.294Z,49.92
2023-03-29T14:33:05.148Z,50.63
2023-03-29T14:34:14.119Z,51.27
2023-03-29T14:35:16.752Z,50.95
2023-03-29T14:36:19.915Z,51.12
2023-03-29T14:37:27.706Z,50.51
2023-03-29T14:38:32.028Z,51.50
2023-03-29T14:39:35.883Z,51.21
2023-03-29T14:40:38.816Z,51.06
2023-03-29T14:41:47.936Z,52.37
2023-03-29T14:42:52.507Z,51.34
2023-03-29T14:43:54.411Z,52.13
2023-03-29T14:45:00.010Z,52.23
2023-03-29T14:46:06.236Z,52.54
2023-03-29T14:47:15.185Z,52.07
2023-03-29T14:48:18.624Z,54.22
2023-03-29T14:49:22.912Z,56.54
2023-03-29T14:50:30.079Z,60.82
2023-03-29T14:51:32.570Z,57.64
2023-03-29T14:52:35.955Z,54.85